Time;durP1;ratioP1;P1;durP2;ratioP2;P2;SDS_P1;SDS_P2;PMS_P1;PMS_P2;Temp;Humidity;BMP_temperature;BMP_pressure;BME280_temperature;BME280_humidity;BME280_pressure;Samples;Min_cycle;Max_cycle;Signal;HPM_P1;HPM_P2
2022/10/14 00:02:22;;;;;;;33.17;21.65;;;;;;;;;;5070519;28;20562;-66
2022/10/14 00:04:48;;;;;;;35.83;21.73;;;;;;;;;;5071052;28;20120;-66
2022/10/14 00:07:14;;;;;;;34.85;20.83;;;;;;;;;;5070940;28;20044;-66
2022/10/14 00:09:41;;;;;;;33.20;19.92;;;;;;;;;;5070503;28;20040;-66
2022/10/14 00:12:07;;;;;;;36.55;20.85;;;;;;;;;;5070335;28;20052;-66
2022/10/14 00:14:33;;;;;;;29.55;19.48;;;;;;;;;;5070720;28;20059;-66
2022/10/14 00:16:59;;;;;;;37.15;20.05;;;;;;;;;;5068756;28;20545;-66
2022/10/14 00:19:25;;;;;;;36.63;20.52;;;;;;;;;;5070764;28;20544;-66
2022/10/14 00:21:51;;;;;;;34.45;20.35;;;;;;;;;;5070899;28;20040;-66
2022/10/14 00:24:17;;;;;;;30.58;19.23;;;;;;;;;;5069117;28;20048;-66
2022/10/14 00:26:44;;;;;;;33.40;19.02;;;;;;;;;;5070702;28;20470;-66
2022/10/14 00:29:17;;;;;;;31.65;19.23;;;;;;;;;;5070676;28;20376;-66
2022/10/14 00:31:43;;;;;;;31.77;18.73;;;;;;;;;;5070400;28;20040;-66
2022/10/14 00:34:11;;;;;;;31.60;18.55;;;;;;;;;;5070743;28;20045;-66
2022/10/14 00:36:39;;;;;;;34.00;18.27;;;;;;;;;;5070743;28;20040;-66
2022/10/14 00:39:05;;;;;;;71.57;20.27;;;;;;;;;;5069954;28;20048;-66
2022/10/14 00:41:32;;;;;;;164.88;24.35;;;;;;;;;;5070514;28;20358;-66
2022/10/14 00:43:58;;;;;;;163.68;21.73;;;;;;;;;;5070701;28;20431;-66
2022/10/14 00:46:25;;;;;;;124.63;21.42;;;;;;;;;;5070059;28;20078;-66
2022/10/14 00:48:52;;;;;;;90.18;19.63;;;;;;;;;;5070479;28;20068;-66
2022/10/14 00:51:18;;;;;;;197.93;20.20;;;;;;;;;;5070716;28;20040;-66
2022/10/14 00:53:45;;;;;;;232.75;20.92;;;;;;;;;;5070411;28;20055;-66
2022/10/14 00:56:12;;;;;;;177.18;19.77;;;;;;;;;;5070003;28;20036;-66
2022/10/14 00:58:39;;;;;;;176.10;18.98;;;;;;;;;;5068928;28;20055;-66
2022/10/14 01:01:06;;;;;;;180.40;20.10;;;;;;;;;;5070964;28;20032;-66
2022/10/14 01:03:33;;;;;;;182.18;20.45;;;;;;;;;;5072923;28;20191;-66
2022/10/14 01:06:03;;;;;;;95.75;16.67;;;;;;;;;;5074463;28;20044;-66
2022/10/14 01:08:50;;;;;;;175.43;19.95;;;;;;;;;;5074463;28;20052;-66
2022/10/14 01:11:19;;;;;;;70.78;16.70;;;;;;;;;;5052421;28;20061;-66
2022/10/14 01:13:54;;;;;;;70.35;15.10;;;;;;;;;;5073937;28;20049;-66
2022/10/14 01:16:20;;;;;;;143.93;19.58;;;;;;;;;;5073429;28;20047;-66
2022/10/14 01:19:04;;;;;;;188.45;20.80;;;;;;;;;;5074292;28;20029;-66
2022/10/14 01:21:33;;;;;;;125.85;17.15;;;;;;;;;;5074027;28;20048;-66
2022/10/14 01:24:14;;;;;;;126.97;18.73;;;;;;;;;;5073631;28;20071;-66
2022/10/14 01:26:46;;;;;;;58.20;15.25;;;;;;;;;;5073645;28;20094;-66
2022/10/14 01:29:12;;;;;;;;;;;;;;;;;;5074296;28;20040;-66
2022/10/14 01:31:43;;;;;;;108.78;17.52;;;;;;;;;;5073576;28;20558;-66
2022/10/14 01:34:10;;;;;;;106.25;17.85;;;;;;;;;;5073900;28;20123;-66
2022/10/14 01:36:38;;;;;;;82.65;17.65;;;;;;;;;;5073744;28;20051;-66
2022/10/14 01:39:13;;;;;;;56.63;16.33;;;;;;;;;;5073253;28;20116;-66
2022/10/14 01:41:42;;;;;;;62.92;16.52;;;;;;;;;;5073352;28;20048;-66
2022/10/14 01:44:10;;;;;;;29.75;15.55;;;;;;;;;;5072292;28;20498;-66
2022/10/14 01:46:38;;;;;;;64.40;17.45;;;;;;;;;;5073033;28;20123;-66
2022/10/14 01:49:07;;;;;;;49.92;16.67;;;;;;;;;;5073573;28;20044;-66
2022/10/14 01:51:39;;;;;;;166.45;19.15;;;;;;;;;;5073478;28;20040;-66
2022/10/14 01:54:08;;;;;;;77.70;15.27;;;;;;;;;;5073137;28;20048;-66
2022/10/14 01:56:35;;;;;;;112.32;15.98;;;;;;;;;;5073409;28;20336;-66
2022/10/14 01:59:02;;;;;;;75.85;14.50;;;;;;;;;;5073191;28;20037;-66
2022/10/14 02:01:28;;;;;;;63.25;14.43;;;;;;;;;;5073075;28;20041;-66
2022/10/14 02:03:54;;;;;;;119.07;16.88;;;;;;;;;;5073290;28;20040;-66
2022/10/14 02:06:20;;;;;;;53.08;15.18;;;;;;;;;;5073154;28;20169;-66
2022/10/14 02:08:58;;;;;;;108.28;15.52;;;;;;;;;;5072711;28;20130;-66
2022/10/14 02:11:25;;;;;;;79.03;14.52;;;;;;;;;;5072914;28;20057;-66
2022/10/14 02:14:05;;;;;;;64.22;14.40;;;;;;;;;;5072082;28;20044;-66
2022/10/14 02:16:42;;;;;;;75.35;13.90;;;;;;;;;;5072470;28;20055;-66
2022/10/14 02:19:11;;;;;;;55.00;13.63;;;;;;;;;;5072980;28;20482;-66
2022/10/14 02:21:46;;;;;;;123.63;15.35;;;;;;;;;;5073062;28;20039;-66
2022/10/14 02:24:12;;;;;;;79.10;13.73;;;;;;;;;;5072783;28;20517;-66
2022/10/14 02:26:39;;;;;;;48.17;13.43;;;;;;;;;;5072951;28;20048;-66
2022/10/14 02:29:05;;;;;;;84.80;13.10;;;;;;;;;;5072861;28;20039;-66
2022/10/14 02:31:32;;;;;;;73.15;13.25;;;;;;;;;;5072518;28;20044;-66
2022/10/14 02:34:00;;;;;;;36.55;11.50;;;;;;;;;;5071403;28;20052;-66
2022/10/14 02:36:26;;;;;;;32.72;11.90;;;;;;;;;;5071419;28;20664;-66
2022/10/14 02:38:53;;;;;;;42.55;12.93;;;;;;;;;;5072341;28;20654;-66
2022/10/14 02:41:21;;;;;;;77.05;12.43;;;;;;;;;;5072739;28;20599;-65
2022/10/14 02:43:47;;;;;;;25.65;11.07;;;;;;;;;;5072717;28;20055;-66
2022/10/14 02:46:13;;;;;;;103.65;14.95;;;;;;;;;;5072034;28;20131;-66
2022/10/14 02:48:39;;;;;;;70.93;13.65;;;;;;;;;;5072497;28;20140;-66
2022/10/14 02:51:05;;;;;;;79.68;13.07;;;;;;;;;;5072444;28;20044;-66
2022/10/14 02:53:31;;;;;;;96.25;12.27;;;;;;;;;;5072009;28;20033;-66
2022/10/14 02:55:57;;;;;;;99.45;13.30;;;;;;;;;;5072028;28;20036;-66
2022/10/14 02:58:23;;;;;;;91.13;12.52;;;;;;;;;;5072066;28;20047;-66
2022/10/14 03:00:49;;;;;;;36.75;10.70;;;;;;;;;;5071662;28;20093;-66
2022/10/14 03:03:15;;;;;;;92.05;12.48;;;;;;;;;;5071825;28;20048;-66
2022/10/14 03:05:42;;;;;;;42.17;11.40;;;;;;;;;;5072059;28;20047;-66
2022/10/14 03:08:09;;;;;;;44.75;11.95;;;;;;;;;;5053402;28;20210;-66
2022/10/14 03:10:35;;;;;;;53.65;10.77;;;;;;;;;;5071863;28;20101;-66
2022/10/14 03:13:02;;;;;;;45.05;10.60;;;;;;;;;;5071959;28;20463;-66
2022/10/14 03:15:29;;;;;;;34.78;11.02;;;;;;;;;;5071612;28;20048;-66
2022/10/14 03:17:55;;;;;;;72.78;12.50;;;;;;;;;;5071759;28;20042;-66
2022/10/14 03:20:21;;;;;;;88.38;13.57;;;;;;;;;;5071802;28;20040;-66
2022/10/14 03:22:47;;;;;;;56.28;13.10;;;;;;;;;;5071453;28;20486;-66
2022/10/14 03:25:13;;;;;;;82.43;14.07;;;;;;;;;;5071338;28;20084;-66
2022/10/14 03:27:39;;;;;;;108.05;15.60;;;;;;;;;;5071681;28;20072;-66
2022/10/14 03:30:06;;;;;;;64.15;15.15;;;;;;;;;;5071166;28;20036;-66
2022/10/14 03:32:32;;;;;;;58.33;16.20;;;;;;;;;;5071485;28;20048;-66
2022/10/14 03:34:58;;;;;;;61.92;14.50;;;;;;;;;;5070275;28;20033;-66
2022/10/14 03:37:24;;;;;;;87.80;16.13;;;;;;;;;;5070970;28;20033;-66
2022/10/14 03:39:51;;;;;;;55.33;15.70;;;;;;;;;;5071445;28;20043;-66
2022/10/14 03:42:18;;;;;;;94.07;17.25;;;;;;;;;;5070139;28;20053;-66
2022/10/14 03:44:45;;;;;;;101.53;17.52;;;;;;;;;;5070951;28;20127;-66
2022/10/14 03:47:11;;;;;;;54.83;16.88;;;;;;;;;;5071329;28;20056;-66
2022/10/14 03:49:37;;;;;;;66.05;17.20;;;;;;;;;;5071207;28;20383;-66
2022/10/14 03:52:03;;;;;;;138.88;19.00;;;;;;;;;;5070806;28;20047;-66
2022/10/14 03:54:29;;;;;;;107.28;19.75;;;;;;;;;;5071172;28;20048;-66
2022/10/14 03:56:55;;;;;;;44.88;16.70;;;;;;;;;;5071051;28;20657;-66
2022/10/14 03:59:21;;;;;;;82.72;19.58;;;;;;;;;;5070719;28;20037;-66
2022/10/14 04:01:47;;;;;;;45.60;16.05;;;;;;;;;;5071249;28;20037;-66
2022/10/14 04:04:13;;;;;;;43.92;17.75;;;;;;;;;;5070838;28;20044;-66
2022/10/14 04:06:39;;;;;;;66.78;19.77;;;;;;;;;;5070616;28;20056;-66
2022/10/14 04:09:05;;;;;;;43.97;17.25;;;;;;;;;;5052915;28;20044;-66
2022/10/14 04:11:31;;;;;;;43.45;17.25;;;;;;;;;;5070665;28;20055;-66
2022/10/14 04:13:58;;;;;;;46.35;16.98;;;;;;;;;;5070592;28;20052;-66
2022/10/14 04:16:24;;;;;;;63.53;19.60;;;;;;;;;;5071082;28;20123;-66
2022/10/14 04:18:50;;;;;;;63.45;17.95;;;;;;;;;;5070994;28;20479;-66
2022/10/14 04:21:16;;;;;;;59.72;19.55;;;;;;;;;;5070772;28;20045;-66
2022/10/14 04:23:42;;;;;;;59.47;18.05;;;;;;;;;;5070894;28;20072;-66
2022/10/14 04:26:08;;;;;;;42.75;17.60;;;;;;;;;;5070922;28;20044;-66
2022/10/14 04:28:35;;;;;;;47.05;17.33;;;;;;;;;;5070420;28;20423;-66
2022/10/14 04:31:01;;;;;;;61.85;19.05;;;;;;;;;;5070722;28;20390;-66
2022/10/14 04:33:27;;;;;;;56.08;18.52;;;;;;;;;;5069146;28;20093;-66
2022/10/14 04:36:00;;;;;;;47.35;18.23;;;;;;;;;;5069753;28;20446;-66
2022/10/14 04:38:26;;;;;;;46.58;17.90;;;;;;;;;;5070536;28;20059;-66
2022/10/14 04:40:53;;;;;;;44.85;17.48;;;;;;;;;;5070585;28;20037;-66
2022/10/14 04:43:19;;;;;;;46.13;17.17;;;;;;;;;;5069061;28;20053;-66
2022/10/14 04:45:45;;;;;;;43.40;16.17;;;;;;;;;;5070771;28;20033;-66
2022/10/14 04:48:11;;;;;;;43.30;17.13;;;;;;;;;;5070442;28;20125;-66
2022/10/14 04:50:37;;;;;;;48.97;17.08;;;;;;;;;;5070191;28;20469;-66
2022/10/14 04:53:03;;;;;;;44.00;16.20;;;;;;;;;;5070321;28;20044;-66
2022/10/14 04:55:29;;;;;;;53.05;18.30;;;;;;;;;;5070148;28;20047;-66
2022/10/14 04:57:55;;;;;;;52.53;18.42;;;;;;;;;;5068430;28;20085;-66
2022/10/14 05:00:21;;;;;;;61.97;19.60;;;;;;;;;;5069958;28;20037;-66
2022/10/14 05:02:47;;;;;;;51.45;19.13;;;;;;;;;;5070416;28;20079;-66
2022/10/14 05:05:13;;;;;;;51.40;19.52;;;;;;;;;;5070100;28;20045;-66
2022/10/14 05:07:40;;;;;;;68.93;20.08;;;;;;;;;;5069863;28;20036;-66
2022/10/14 05:10:08;;;;;;;59.33;20.40;;;;;;;;;;5070249;28;20047;-66
2022/10/14 05:12:34;;;;;;;80.60;21.98;;;;;;;;;;5069922;28;20541;-66
2022/10/14 05:15:00;;;;;;;71.68;21.58;;;;;;;;;;5070050;28;20045;-66
2022/10/14 05:17:27;;;;;;;70.80;20.85;;;;;;;;;;5070318;28;20121;-66
2022/10/14 05:19:53;;;;;;;55.47;19.70;;;;;;;;;;5069862;28;20051;-66
2022/10/14 05:22:19;;;;;;;58.90;20.27;;;;;;;;;;5069790;28;20545;-66
2022/10/14 05:24:45;;;;;;;61.63;19.92;;;;;;;;;;5070261;28;20123;-66
2022/10/14 05:27:11;;;;;;;85.25;19.25;;;;;;;;;;5070044;28;20115;-66
2022/10/14 05:29:37;;;;;;;82.22;22.00;;;;;;;;;;5069615;28;20045;-66
2022/10/14 05:32:03;;;;;;;67.57;18.85;;;;;;;;;;5069811;28;20139;-66
2022/10/14 05:34:29;;;;;;;68.18;20.13;;;;;;;;;;5069913;28;20040;-66
2022/10/14 05:36:55;;;;;;;54.05;18.08;;;;;;;;;;5069416;28;20049;-66
2022/10/14 05:39:21;;;;;;;58.25;18.10;;;;;;;;;;5070057;28;20032;-66
2022/10/14 05:41:47;;;;;;;53.38;16.45;;;;;;;;;;5070000;28;20041;-66
2022/10/14 05:44:13;;;;;;;52.97;17.48;;;;;;;;;;5069725;28;20102;-66
2022/10/14 05:46:39;;;;;;;60.15;17.23;;;;;;;;;;5070185;28;20044;-66
2022/10/14 05:49:05;;;;;;;75.15;18.95;;;;;;;;;;5071767;28;20071;-66
2022/10/14 05:51:32;;;;;;;63.67;19.98;;;;;;;;;;5073007;28;20157;-67
2022/10/14 05:53:58;;;;;;;65.93;20.13;;;;;;;;;;5071726;28;20514;-64
2022/10/14 05:56:25;;;;;;;59.45;20.33;;;;;;;;;;5072616;28;20397;-63
2022/10/14 05:58:51;;;;;;;74.28;20.70;;;;;;;;;;5071488;28;20029;-63
2022/10/14 06:01:17;;;;;;;62.25;21.58;;;;;;;;;;5071880;28;20072;-63
2022/10/14 06:03:43;;;;;;;60.85;21.85;;;;;;;;;;5073057;28;20123;-62
2022/10/14 06:06:13;;;;;;;59.28;20.50;;;;;;;;;;5072312;28;20582;-61
2022/10/14 06:08:39;;;;;;;59.28;21.77;;;;;;;;;;5072703;28;20159;-62
2022/10/14 06:11:06;;;;;;;58.55;21.42;;;;;;;;;;5072706;28;20079;-62
2022/10/14 06:13:32;;;;;;;62.55;23.23;;;;;;;;;;5072433;28;20469;-62
2022/10/14 06:16:02;;;;;;;67.45;23.73;;;;;;;;;;5073108;28;20233;-62
2022/10/14 06:18:28;;;;;;;55.67;21.40;;;;;;;;;;5072796;28;20460;-63
2022/10/14 06:20:54;;;;;;;60.50;22.20;;;;;;;;;;5072434;28;20040;-62
2022/10/14 06:23:20;;;;;;;55.08;22.92;;;;;;;;;;5072355;28;20056;-63
2022/10/14 06:25:46;;;;;;;59.60;21.15;;;;;;;;;;5071980;28;20083;-63
2022/10/14 06:28:12;;;;;;;57.10;22.63;;;;;;;;;;5072416;28;20040;-64
2022/10/14 06:30:38;;;;;;;57.30;21.80;;;;;;;;;;5072620;28;20036;-63
2022/10/14 06:33:04;;;;;;;58.10;21.50;;;;;;;;;;5072276;28;20076;-63
2022/10/14 06:35:30;;;;;;;57.35;23.27;;;;;;;;;;5061812;28;20044;-63
2022/10/14 06:37:56;;;;;;;59.22;23.35;;;;;;;;;;5069197;28;20463;-64
2022/10/14 06:40:22;;;;;;;59.08;23.58;;;;;;;;;;5071519;28;20036;-64
2022/10/14 06:42:48;;;;;;;59.75;24.55;;;;;;;;;;5071088;28;20044;-64
2022/10/14 06:45:14;;;;;;;62.85;25.55;;;;;;;;;;5071546;28;20094;-64
2022/10/14 06:47:41;;;;;;;61.05;24.13;;;;;;;;;;5071747;28;20080;-62
2022/10/14 06:50:07;;;;;;;66.35;25.35;;;;;;;;;;5071237;28;20050;-64
2022/10/14 06:52:33;;;;;;;68.28;25.40;;;;;;;;;;5072125;28;20145;-64
2022/10/14 06:54:59;;;;;;;81.68;25.38;;;;;;;;;;5071683;28;20060;-63
2022/10/14 06:57:25;;;;;;;62.13;25.17;;;;;;;;;;5070428;28;20097;-63
2022/10/14 06:59:51;;;;;;;59.70;24.55;;;;;;;;;;5070546;28;20040;-63
2022/10/14 07:02:17;;;;;;;62.53;25.58;;;;;;;;;;5071543;28;20044;-63
2022/10/14 07:04:43;;;;;;;61.65;24.73;;;;;;;;;;5070969;28;20106;-64
2022/10/14 07:07:09;;;;;;;60.47;24.10;;;;;;;;;;5069494;28;20062;-65
2022/10/14 07:09:35;;;;;;;54.10;24.60;;;;;;;;;;5071154;28;20699;-64
2022/10/14 07:12:01;;;;;;;58.08;23.42;;;;;;;;;;5070530;28;20060;-64
2022/10/14 07:14:27;;;;;;;55.70;23.92;;;;;;;;;;5070858;28;20097;-63
2022/10/14 07:16:53;;;;;;;51.47;21.73;;;;;;;;;;5069827;28;20048;-64
2022/10/14 07:19:19;;;;;;;52.58;20.55;;;;;;;;;;5070758;28;20045;-64
2022/10/14 07:21:45;;;;;;;46.05;20.45;;;;;;;;;;5070635;28;20526;-64
2022/10/14 07:24:11;;;;;;;43.70;19.90;;;;;;;;;;5070886;28;20132;-64
2022/10/14 07:26:37;;;;;;;46.67;19.27;;;;;;;;;;5069873;28;20071;-64
2022/10/14 07:29:04;;;;;;;48.22;21.20;;;;;;;;;;5070023;28;20052;-65
2022/10/14 07:31:30;;;;;;;44.92;20.40;;;;;;;;;;5070711;28;20056;-64
2022/10/14 07:33:56;;;;;;;41.72;20.02;;;;;;;;;;5070075;28;20036;-64
2022/10/14 07:36:23;;;;;;;48.80;21.40;;;;;;;;;;5068895;28;20415;-63
2022/10/14 07:38:49;;;;;;;45.00;20.42;;;;;;;;;;5070434;28;20086;-63
2022/10/14 07:41:17;;;;;;;43.58;19.98;;;;;;;;;;5070581;28;20055;-64
2022/10/14 07:43:44;;;;;;;47.95;20.75;;;;;;;;;;5070555;28;20047;-64
2022/10/14 07:46:11;;;;;;;45.30;20.88;;;;;;;;;;5069870;28;20032;-64
2022/10/14 07:48:38;;;;;;;46.03;20.48;;;;;;;;;;5068975;28;20044;-64
2022/10/14 07:51:04;;;;;;;46.80;21.17;;;;;;;;;;5070187;28;20036;-63
2022/10/14 07:53:31;;;;;;;48.22;21.20;;;;;;;;;;5070300;28;20159;-63
2022/10/14 07:55:57;;;;;;;49.38;21.15;;;;;;;;;;5069570;28;20040;-62
2022/10/14 07:58:25;;;;;;;49.08;22.05;;;;;;;;;;5069217;28;20097;-63
2022/10/14 08:00:51;;;;;;;44.55;21.52;;;;;;;;;;5070362;28;20089;-63
2022/10/14 08:03:18;;;;;;;47.60;22.10;;;;;;;;;;5069750;28;20198;-64
2022/10/14 08:05:45;;;;;;;45.00;21.15;;;;;;;;;;5069003;28;20486;-64
2022/10/14 08:08:11;;;;;;;45.08;21.50;;;;;;;;;;5070138;28;20086;-62
2022/10/14 08:10:37;;;;;;;45.72;21.42;;;;;;;;;;5068666;28;20043;-63
2022/10/14 08:13:04;;;;;;;49.50;21.80;;;;;;;;;;5069790;28;20051;-64
2022/10/14 08:15:37;;;;;;;42.63;21.30;;;;;;;;;;5069931;28;20157;-62
2022/10/14 08:18:03;;;;;;;56.05;23.08;;;;;;;;;;5068393;28;20044;-63
2022/10/14 08:20:29;;;;;;;53.65;22.88;;;;;;;;;;5070250;28;20032;-63
2022/10/14 08:22:55;;;;;;;44.85;21.10;;;;;;;;;;5069604;28;20410;-64
2022/10/14 08:25:21;;;;;;;44.72;21.33;;;;;;;;;;5068783;28;20048;-63
2022/10/14 08:27:49;;;;;;;52.88;23.05;;;;;;;;;;5068410;28;20047;-63
2022/10/14 08:30:15;;;;;;;51.10;22.33;;;;;;;;;;5069944;28;20045;-63
2022/10/14 08:32:41;;;;;;;54.80;24.20;;;;;;;;;;5069763;28;20048;-63
2022/10/14 08:35:07;;;;;;;49.72;23.88;;;;;;;;;;5069936;28;20123;-63
2022/10/14 08:37:33;;;;;;;50.30;24.17;;;;;;;;;;5069299;28;20068;-62
2022/10/14 08:39:59;;;;;;;52.63;23.00;;;;;;;;;;5070050;28;20095;-62
2022/10/14 08:42:31;;;;;;;52.17;23.38;;;;;;;;;;5069757;28;20036;-62
2022/10/14 08:45:00;;;;;;;56.00;25.30;;;;;;;;;;5068670;28;20120;-63
2022/10/14 08:47:45;;;;;;;55.33;23.48;;;;;;;;;;5067992;28;20447;-64
2022/10/14 08:50:30;;;;;;;50.35;23.58;;;;;;;;;;5051397;28;20384;-64
2022/10/14 08:53:00;;;;;;;61.45;25.58;;;;;;;;;;5069717;28;20045;-65
2022/10/14 08:55:33;;;;;;;53.58;24.50;;;;;;;;;;5068853;28;20036;-62
2022/10/14 08:58:19;;;;;;;60.95;24.65;;;;;;;;;;5068325;28;20701;-61
2022/10/14 09:00:46;;;;;;;55.63;24.42;;;;;;;;;;5068203;28;20051;-63
2022/10/14 09:03:32;;;;;;;58.63;25.65;;;;;;;;;;5068588;28;20048;-63
2022/10/14 09:06:17;;;;;;;55.95;25.00;;;;;;;;;;5068180;28;20048;-61
2022/10/14 09:08:44;;;;;;;59.97;25.40;;;;;;;;;;5069407;28;20036;-63
2022/10/14 09:11:12;;;;;;;58.67;24.30;;;;;;;;;;5068425;28;20729;-62
2022/10/14 09:13:40;;;;;;;64.15;26.52;;;;;;;;;;5069210;28;20044;-63
2022/10/14 09:16:09;;;;;;;66.97;26.05;;;;;;;;;;5069296;28;20131;-62
2022/10/14 09:18:37;;;;;;;59.50;24.10;;;;;;;;;;5068684;28;20090;-63
2022/10/14 09:21:11;;;;;;;61.42;24.45;;;;;;;;;;5069125;28;20391;-63
2022/10/14 09:23:37;;;;;;;66.50;25.70;;;;;;;;;;5072339;28;20047;-63
2022/10/14 09:26:07;;;;;;;57.05;24.25;;;;;;;;;;5070428;28;20067;-63
2022/10/14 09:28:36;;;;;;;55.25;23.67;;;;;;;;;;5072921;28;20530;-63
2022/10/14 09:31:03;;;;;;;53.75;22.20;;;;;;;;;;5073117;28;20052;-63
2022/10/14 09:33:29;;;;;;;53.67;23.23;;;;;;;;;;5072640;28;20080;-63
2022/10/14 09:35:56;;;;;;;52.88;23.20;;;;;;;;;;5072489;28;20040;-62
2022/10/14 09:38:23;;;;;;;55.97;23.30;;;;;;;;;;5072532;28;20549;-63
2022/10/14 09:40:51;;;;;;;60.17;22.85;;;;;;;;;;5071400;28;20047;-62
2022/10/14 09:43:18;;;;;;;49.28;21.20;;;;;;;;;;5072884;28;20147;-63
2022/10/14 09:45:53;;;;;;;55.90;22.65;;;;;;;;;;5072598;28;20409;-63
2022/10/14 09:48:24;;;;;;;55.75;22.42;;;;;;;;;;5072670;28;20368;-63
2022/10/14 09:50:53;;;;;;;58.92;22.92;;;;;;;;;;5073214;28;20040;-62
2022/10/14 09:53:27;;;;;;;55.67;22.50;;;;;;;;;;5072738;28;20068;-62
2022/10/14 09:55:54;;;;;;;56.63;23.58;;;;;;;;;;5072458;28;20036;-62
2022/10/14 09:58:32;;;;;;;57.83;23.35;;;;;;;;;;5072789;28;20402;-62
2022/10/14 10:00:59;;;;;;;62.85;23.90;;;;;;;;;;5073092;28;20043;-62
2022/10/14 10:03:32;;;;;;;56.10;22.88;;;;;;;;;;5072719;28;20051;-62
2022/10/14 10:06:03;;;;;;;60.45;23.85;;;;;;;;;;5072913;28;20047;-63
2022/10/14 10:08:29;;;;;;;58.88;23.05;;;;;;;;;;5072984;28;20177;-63
2022/10/14 10:11:00;;;;;;;55.20;21.60;;;;;;;;;;5072204;28;20533;-63
2022/10/14 10:13:37;;;;;;;60.85;22.40;;;;;;;;;;5072578;28;20064;-64
2022/10/14 10:16:04;;;;;;;64.40;23.60;;;;;;;;;;5072761;28;20044;-64
2022/10/14 10:18:30;;;;;;;63.38;24.20;;;;;;;;;;5072193;28;20045;-64
2022/10/14 10:21:05;;;;;;;60.45;23.33;;;;;;;;;;5072786;28;20037;-64
2022/10/14 10:23:33;;;;;;;67.80;22.88;;;;;;;;;;5072550;28;20048;-62
2022/10/14 10:26:16;;;;;;;61.33;22.77;;;;;;;;;;5072106;28;20051;-63
2022/10/14 10:28:46;;;;;;;59.20;20.80;;;;;;;;;;5072622;28;20123;-64
2022/10/14 10:31:20;;;;;;;60.22;20.92;;;;;;;;;;5072059;28;20044;-65
2022/10/14 10:33:53;;;;;;;56.45;20.80;;;;;;;;;;5071814;28;20119;-64
2022/10/14 10:36:27;;;;;;;51.50;19.08;;;;;;;;;;5072478;28;20695;-64
2022/10/14 10:39:12;;;;;;;47.00;18.17;;;;;;;;;;5071735;28;20517;-64
2022/10/14 10:41:49;;;;;;;51.65;18.95;;;;;;;;;;5072412;28;20047;-64
2022/10/14 10:44:32;;;;;;;50.97;18.90;;;;;;;;;;5072093;28;20086;-63
2022/10/14 10:47:23;;;;;;;50.78;17.58;;;;;;;;;;5071807;28;20044;-62
2022/10/14 10:49:58;;;;;;;37.95;15.50;;;;;;;;;;5072182;28;20584;-62
2022/10/14 10:52:29;;;;;;;43.63;16.15;;;;;;;;;;5052401;28;20124;-64
2022/10/14 10:54:55;;;;;;;36.65;14.20;;;;;;;;;;5063348;28;20131;-64
2022/10/14 10:57:36;;;;;;;39.55;15.07;;;;;;;;;;5072074;28;20115;-63
2022/10/14 11:00:10;;;;;;;35.78;14.68;;;;;;;;;;5071764;28;20089;-61
2022/10/14 11:02:38;;;;;;;36.60;14.38;;;;;;;;;;5071316;28;20041;-62
2022/10/14 11:05:18;;;;;;;33.55;14.25;;;;;;;;;;5072023;28;20082;-62
2022/10/14 11:13:41;;;;;;;35.22;15.20;;;;;;;;;;5071899;28;20063;-62
2022/10/14 11:16:13;;;;;;;38.13;15.18;;;;;;;;;;5071452;28;20400;-62
2022/10/14 11:18:49;;;;;;;36.78;16.08;;;;;;;;;;5071494;28;20475;-63
2022/10/14 11:21:42;;;;;;;37.80;15.95;;;;;;;;;;5071701;28;20039;-63
2022/10/14 11:24:20;;;;;;;37.08;14.73;;;;;;;;;;5068835;28;20080;-63
2022/10/14 11:26:57;;;;;;;42.83;15.60;;;;;;;;;;5071468;28;20049;-63
2022/10/14 11:29:45;;;;;;;37.75;16.92;;;;;;;;;;5071014;28;20079;-62
2022/10/14 11:32:17;;;;;;;41.78;17.30;;;;;;;;;;5070737;28;20223;-62
2022/10/14 11:34:52;;;;;;;39.38;17.35;;;;;;;;;;5071184;28;20048;-62
2022/10/14 11:37:34;;;;;;;39.35;18.05;;;;;;;;;;5071132;28;20051;-62
2022/10/14 11:39:59;;;;;;;46.95;20.20;;;;;;;;;;5070896;28;20037;-63
2022/10/14 11:42:41;;;;;;;51.40;20.02;;;;;;;;;;5071145;28;20363;-63
2022/10/14 11:45:13;;;;;;;53.63;21.47;;;;;;;;;;5069564;28;20044;-63
2022/10/14 11:47:40;;;;;;;44.97;19.77;;;;;;;;;;5071136;28;20111;-63
2022/10/14 11:50:15;;;;;;;52.33;22.27;;;;;;;;;;5071028;28;20740;-64
2022/10/14 11:53:06;;;;;;;54.22;22.38;;;;;;;;;;5070369;28;20036;-65
2022/10/14 11:55:52;;;;;;;71.55;25.98;;;;;;;;;;5065463;28;20867;-64
2022/10/14 11:58:22;;;;;;;62.17;26.17;;;;;;;;;;5069997;28;20041;-64
2022/10/14 12:01:07;;;;;;;68.82;26.05;;;;;;;;;;5070478;28;20410;-64
2022/10/14 12:03:42;;;;;;;73.75;28.00;;;;;;;;;;5070684;28;20056;-64
2022/10/14 12:06:27;;;;;;;93.53;29.80;;;;;;;;;;5070899;28;20056;-64
2022/10/14 12:08:56;;;;;;;68.47;27.63;;;;;;;;;;5050030;28;20128;-64
2022/10/14 12:11:30;;;;;;;77.18;27.95;;;;;;;;;;5059363;28;20136;-64
2022/10/14 12:14:02;;;;;;;77.82;28.40;;;;;;;;;;5070745;28;20124;-64
2022/10/14 12:16:29;;;;;;;67.85;27.65;;;;;;;;;;5069047;28;20060;-64
2022/10/14 12:18:56;;;;;;;76.22;29.52;;;;;;;;;;5070349;28;20074;-64
2022/10/14 12:21:26;;;;;;;82.47;31.88;;;;;;;;;;5070842;28;20139;-63
2022/10/14 12:24:15;;;;;;;88.20;31.85;;;;;;;;;;5070105;28;20407;-63
2022/10/14 12:26:54;;;;;;;85.22;30.85;;;;;;;;;;5070410;28;20052;-63
2022/10/14 12:29:25;;;;;;;78.30;31.15;;;;;;;;;;5070533;28;20040;-63
2022/10/14 12:32:06;;;;;;;90.10;30.88;;;;;;;;;;5070110;28;20040;-63
2022/10/14 12:34:39;;;;;;;82.57;31.80;;;;;;;;;;5070453;28;20545;-63
2022/10/14 12:37:23;;;;;;;84.78;30.52;;;;;;;;;;5070314;28;20040;-64
2022/10/14 12:39:50;;;;;;;78.25;29.60;;;;;;;;;;5070363;28;20087;-63
2022/10/14 12:42:18;;;;;;;81.95;29.02;;;;;;;;;;5070173;28;20071;-64
2022/10/14 12:44:50;;;;;;;75.43;28.45;;;;;;;;;;5069706;28;20190;-63
2022/10/14 12:47:30;;;;;;;64.28;26.77;;;;;;;;;;5070050;28;20398;-63
2022/10/14 12:49:58;;;;;;;86.63;29.25;;;;;;;;;;5070424;28;20166;-64
2022/10/14 12:52:26;;;;;;;70.15;27.48;;;;;;;;;;5069679;28;20041;-64
2022/10/14 12:54:52;;;;;;;76.80;27.77;;;;;;;;;;5069677;28;20092;-64
2022/10/14 12:57:21;;;;;;;60.30;25.15;;;;;;;;;;5058612;28;20044;-62
2022/10/14 12:59:49;;;;;;;59.38;25.27;;;;;;;;;;5072103;28;20071;-63
2022/10/14 13:02:16;;;;;;;57.97;25.17;;;;;;;;;;5074187;28;20131;-62
2022/10/14 13:04:49;;;;;;;55.80;24.52;;;;;;;;;;5064916;28;20440;-62
2022/10/14 13:07:15;;;;;;;46.35;22.00;;;;;;;;;;5072200;28;20075;-63
2022/10/14 13:09:43;;;;;;;45.00;21.65;;;;;;;;;;5070934;28;20544;-62
2022/10/14 13:12:18;;;;;;;47.28;22.38;;;;;;;;;;5072359;28;20073;-62
2022/10/14 13:14:59;;;;;;;41.22;19.52;;;;;;;;;;5070758;28;20071;-61
2022/10/14 13:17:41;;;;;;;39.75;20.52;;;;;;;;;;5072984;28;20408;-62
2022/10/14 13:20:26;;;;;;;33.20;19.17;;;;;;;;;;5075675;28;20044;-61
2022/10/14 13:22:52;;;;;;;37.10;18.13;;;;;;;;;;5072074;28;20159;-64
2022/10/14 13:25:19;;;;;;;30.35;18.73;;;;;;;;;;5073439;28;20039;-61
2022/10/14 13:27:54;;;;;;;30.00;17.90;;;;;;;;;;5071614;28;20055;-61
2022/10/14 13:30:32;;;;;;;25.17;17.05;;;;;;;;;;5072428;28;20033;-63
2022/10/14 13:33:11;;;;;;;31.52;20.55;;;;;;;;;;5074485;28;20044;-63
2022/10/14 13:35:45;;;;;;;31.05;19.58;;;;;;;;;;5073114;28;20036;-64
2022/10/14 13:38:13;;;;;;;28.20;16.55;;;;;;;;;;5065326;28;20033;-63
2022/10/14 13:40:43;;;;;;;23.33;15.60;;;;;;;;;;5076452;28;20041;-63
2022/10/14 13:43:18;;;;;;;28.33;16.35;;;;;;;;;;5072857;28;20052;-62
2022/10/14 13:45:52;;;;;;;27.30;16.63;;;;;;;;;;5072748;28;20052;-63
2022/10/14 13:48:38;;;;;;;22.83;15.35;;;;;;;;;;5069862;28;20056;-64
2022/10/14 13:51:12;;;;;;;24.63;15.23;;;;;;;;;;5071162;28;20059;-65
2022/10/14 13:53:48;;;;;;;23.95;16.15;;;;;;;;;;5069941;28;20040;-64
2022/10/14 13:56:20;;;;;;;24.88;15.75;;;;;;;;;;5071786;28;20075;-64
2022/10/14 13:58:46;;;;;;;21.25;13.73;;;;;;;;;;5071779;28;20388;-64
2022/10/14 14:01:13;;;;;;;23.00;15.45;;;;;;;;;;5071074;28;20067;-64
2022/10/14 14:03:43;;;;;;;22.90;15.40;;;;;;;;;;5072372;28;20493;-63
2022/10/14 14:06:14;;;;;;;22.05;15.07;;;;;;;;;;5069526;28;20131;-63
2022/10/14 14:08:54;;;;;;;23.77;15.48;;;;;;;;;;5067250;28;20037;-62
2022/10/14 14:11:26;;;;;;;24.70;15.60;;;;;;;;;;5069925;28;20052;-63
2022/10/14 14:14:12;;;;;;;27.20;16.58;;;;;;;;;;5075153;28;20135;-63
2022/10/14 14:16:40;;;;;;;23.63;15.75;;;;;;;;;;5067323;28;20047;-64
2022/10/14 14:19:16;;;;;;;27.38;15.60;;;;;;;;;;5071073;28;20148;-63
2022/10/14 14:21:42;;;;;;;29.90;18.48;;;;;;;;;;5068519;28;20025;-64
2022/10/14 14:24:34;;;;;;;24.88;16.88;;;;;;;;;;5071762;28;20364;-64
2022/10/14 14:27:01;;;;;;;24.38;16.05;;;;;;;;;;5066549;28;20537;-64
2022/10/14 14:29:28;;;;;;;25.58;14.35;;;;;;;;;;5073948;28;20044;-63
2022/10/14 14:31:55;;;;;;;24.38;16.02;;;;;;;;;;5069851;28;20105;-63
2022/10/14 14:34:23;;;;;;;23.30;15.73;;;;;;;;;;5072834;28;20040;-63
2022/10/14 14:36:49;;;;;;;23.42;15.40;;;;;;;;;;5067351;28;20051;-64